createdAt,value
2019-04-20T12:03:19.379Z,0.103
2019-04-20T12:05:37.091Z,0.108
2019-04-20T12:06:51.047Z,0.165
2019-04-20T12:08:50.343Z,0.137
2019-04-20T12:11:31.853Z,0.205
2019-04-20T12:12:57.684Z,0.154
2019-04-20T12:14:50.909Z,0.097
2019-04-20T12:16:50.402Z,0.137
2019-04-20T12:18:50.787Z,0.165
2019-04-20T12:20:50.844Z,0.131
2019-04-20T12:22:50.855Z,0.120
2019-04-20T12:24:50.369Z,0.137
2019-04-20T12:26:51.443Z,0.097
2019-04-20T12:28:51.965Z,0.182
2019-04-20T12:31:10.270Z,0.137
2019-04-20T12:33:04.340Z,0.160
2019-04-20T12:34:50.196Z,0.148
2019-04-20T12:36:51.560Z,0.108
2019-04-20T12:38:52.820Z,0.131
2019-04-20T12:40:50.751Z,0.011
2019-04-20T12:42:51.287Z,0.040
2019-04-20T12:44:50.468Z,0.000
2019-04-20T12:46:52.285Z,0.000
2019-04-20T12:48:51.845Z,0.000
2019-04-20T12:50:50.317Z,0.000
2019-04-20T12:52:50.725Z,0.000
2019-04-20T12:54:50.852Z,0.000
2019-04-20T12:56:51.101Z,0.000
2019-04-20T12:58:51.934Z,0.000
2019-04-20T13:00:52.522Z,0.000
2019-04-20T13:02:51.867Z,0.000
2019-04-20T13:04:51.546Z,0.000
2019-04-20T13:06:55.656Z,0.000
2019-04-20T13:09:05.353Z,0.000
2019-04-20T13:10:51.116Z,0.000
2019-04-20T13:12:50.673Z,0.000
2019-04-20T13:14:51.058Z,0.000
2019-04-20T13:16:56.957Z,0.000
2019-04-20T13:18:51.487Z,0.000
2019-04-20T13:21:01.289Z,0.000
2019-04-20T13:22:51.307Z,0.000
2019-04-20T13:24:50.023Z,0.000
2019-04-20T13:26:51.352Z,0.000
2019-04-20T13:28:51.335Z,0.000
2019-04-20T13:30:50.515Z,0.000
2019-04-20T13:32:50.267Z,0.000
2019-04-20T13:34:50.482Z,0.000
2019-04-20T13:36:50.861Z,0.000
2019-04-20T13:38:51.920Z,0.000
2019-04-20T13:40:51.841Z,0.000
2019-04-20T13:42:50.256Z,0.000
2019-04-20T13:44:51.223Z,0.000
2019-04-20T13:46:52.477Z,0.000
2019-04-20T13:48:51.472Z,0.000
2019-04-20T13:50:50.224Z,0.000
2019-04-20T13:52:51.817Z,0.000
2019-04-20T13:54:52.202Z,0.000
2019-04-20T13:56:51.066Z,0.000
2019-04-20T13:58:52.104Z,0.000
2019-04-20T14:00:58.920Z,0.000
2019-04-20T14:02:51.369Z,0.000
2019-04-20T14:04:51.195Z,0.000
2019-04-20T14:06:51.538Z,0.000
2019-04-20T14:08:49.847Z,0.000
2019-04-20T14:10:51.354Z,0.000
2019-04-20T14:13:20.379Z,0.000
2019-04-20T14:14:51.341Z,0.000
2019-04-20T14:16:50.877Z,0.000
2019-04-20T14:18:51.461Z,0.000
2019-04-20T14:20:52.207Z,0.000
2019-04-20T14:22:52.878Z,0.000
2019-04-20T14:24:51.444Z,0.000
2019-04-20T14:26:51.188Z,0.000
2019-04-20T14:28:51.422Z,0.000
2019-04-20T14:30:52.205Z,0.000
2019-04-20T14:32:50.889Z,0.000
2019-04-20T14:34:51.609Z,0.000
2019-04-20T14:36:51.294Z,0.000
2019-04-20T14:38:50.325Z,0.000
2019-04-20T14:40:50.746Z,0.000
2019-04-20T14:43:01.423Z,0.000
2019-04-20T14:44:50.482Z,0.000
2019-04-20T14:46:51.852Z,0.000
2019-04-20T14:48:50.004Z,0.000
2019-04-20T14:50:50.213Z,0.000
2019-04-20T14:52:51.681Z,0.000
2019-04-20T14:54:50.168Z,0.000
2019-04-20T14:56:52.050Z,0.000
2019-04-20T14:58:51.831Z,0.000
2019-04-20T15:00:56.693Z,0.000
2019-04-20T15:02:50.363Z,0.000
2019-04-20T15:04:50.946Z,0.000
2019-04-20T15:06:50.970Z,0.000
2019-04-20T15:08:50.827Z,0.000
2019-04-20T15:10:52.469Z,0.000
2019-04-20T15:13:08.315Z,0.000
2019-04-20T15:14:50.797Z,0.000
2019-04-20T15:16:51.263Z,0.000
2019-04-20T15:18:58.134Z,0.000
2019-04-20T15:20:51.629Z,0.000
2019-04-20T15:22:51.765Z,0.000
2019-04-20T15:24:49.965Z,0.000
2019-04-20T15:26:50.003Z,0.000
2019-04-20T15:28:50.844Z,0.000
2019-04-20T15:30:52.190Z,0.000
2019-04-20T15:32:52.856Z,0.000
2019-04-20T15:34:51.291Z,0.000
2019-04-20T15:36:52.238Z,0.000
2019-04-20T15:38:51.709Z,0.000
2019-04-20T15:40:51.454Z,0.000
2019-04-20T15:43:24.362Z,0.000
2019-04-20T15:44:51.520Z,0.000
2019-04-20T15:46:51.421Z,0.000
2019-04-20T15:48:52.212Z,0.000
2019-04-20T15:50:52.235Z,0.000
2019-04-20T15:53:02.566Z,0.000
2019-04-20T15:54:51.966Z,0.000
2019-04-20T15:57:21.662Z,0.000
2019-04-20T15:58:52.415Z,0.000
2019-04-20T16:00:56.622Z,0.000
2019-04-20T16:02:51.127Z,0.000
2019-04-20T16:04:54.521Z,0.006
2019-04-20T16:06:50.942Z,0.000
2019-04-20T16:08:51.928Z,0.000
2019-04-20T16:10:51.330Z,0.000
2019-04-20T16:13:33.778Z,0.000
2019-04-20T16:14:51.451Z,0.000
2019-04-20T16:16:51.128Z,0.000
